Terminal Aerodrome Forecast
Issued by NWS Charleston, WV

Current Version | Previous Version | Text Only | Print | Product List | Glossary Off
Versions: 1 2 3 4 5 6 7 8 9 10 11 12 13 14 15 16 17 18 19 20 21 22

078
FTUS41 KRLX 091725
TAFBKW
TAF
KBKW 091725Z 0918/1018 25009G15KT 4SM -SHSN SCT018 BKN025
     FM092300 30007KT P6SM BKN025
     FM100300 29005KT P6SM BKN020
     FM101200 27004KT P6SM SCT020=

USA.gov is the U.S. government's official web portal to all federal, state and local government web resources and services.